Ana Sayfa
METAR-TAF:

METAR-TAF

Havaalanları :

Mehrabad Havalimanı

Tahran, İran

Enlem: 35-41N, Boylam: 051-21E, yükseklik: 1204 m

Güncel hava durumu gözlemi

Rapor saat 00:30 UTC de 12 dakika önce yapıldı.
Rüzgar güneydan 4 kt
Sıcaklık 22°C
Nem 33%
Basınç 1018 hPa
Görüş mesafesi: 8000 m
10000 ft yükseklikte parçalı bulutlu

METAR: OIII 230030Z 18004KT 8000 SCT100 22/05 Q1017 A3005

Saat: 04:12 (00:42 UTC)

Tahmin

Rapor saat 23:10 UTC de 1 saat ve 32 dakika önce yapıldı.
Ayın 23'si saat 00 UTC'den ayın 24'si saat 06 UTC'ye kadar geçerli Tahmin
Rüzgar kuzey/kuzeydoğudan 8 kt
Görüş mesafesi: 8000 m

TAF: OIII 222310Z 2300/2406 03008KT 8000 NSC

4.000'den fazla havaalanı için hava durumu gözlemleri ve tahminleri (METAR ve TAF raporları).

Kullanılabilir istasyonlar harita üzerinde sarı ve kırmızı noktalarla gösterilir.

İstasyonun adını görmek için fareyi noktanın üzerinde gezdirin.

Sonrasında hava gözlem ve tahminlerini görmek için tıklayın.

Haritayı değiştirmek için: yaklaştırmak için siyah artı işaretli yeşil düğmeye ve uzaklaştırmak için de eksi işaretli düğmeye hızla tıklayın; bitişik haritalar için yeşil okları kullanın.


METAR-TAF: